sensor_id;sensor_type;location;lat;lon;timestamp;pressure;altitude;pressure_sealevel;temperature;humidity
75991;BME280;64673;52.276;10.560;2023-02-24T00:02:04;100459.72;;;4.03;88.49
75991;BME280;64673;52.276;10.560;2023-02-24T00:04:35;100464.94;;;3.98;87.57
75991;BME280;64673;52.276;10.560;2023-02-24T00:07:02;100467.00;;;3.85;86.80
75991;BME280;64673;52.276;10.560;2023-02-24T00:09:29;100454.94;;;3.94;88.01
75991;BME280;64673;52.276;10.560;2023-02-24T00:12:03;100456.78;;;3.93;87.97
75991;BME280;64673;52.276;10.560;2023-02-24T00:14:32;100453.19;;;3.88;87.53
75991;BME280;64673;52.276;10.560;2023-02-24T00:16:59;100446.81;;;3.89;87.51
75991;BME280;64673;52.276;10.560;2023-02-24T00:19:26;100447.28;;;3.86;87.86
75991;BME280;64673;52.276;10.560;2023-02-24T00:21:53;100447.41;;;3.91;87.59
75991;BME280;64673;52.276;10.560;2023-02-24T00:24:20;100439.88;;;3.88;87.02
75991;BME280;64673;52.276;10.560;2023-02-24T00:26:53;100435.81;;;3.97;86.65
75991;BME280;64673;52.276;10.560;2023-02-24T00:29:19;100444.75;;;3.91;87.70
75991;BME280;64673;52.276;10.560;2023-02-24T00:31:48;100434.56;;;3.99;87.86
75991;BME280;64673;52.276;10.560;2023-02-24T00:34:13;100432.34;;;3.96;87.46
75991;BME280;64673;52.276;10.560;2023-02-24T00:36:39;100429.44;;;3.98;86.52
75991;BME280;64673;52.276;10.560;2023-02-24T00:39:07;100434.31;;;3.89;85.90
75991;BME280;64673;52.276;10.560;2023-02-24T00:41:40;100433.38;;;3.95;87.39
75991;BME280;64673;52.276;10.560;2023-02-24T00:44:08;100432.44;;;3.90;85.22
75991;BME280;64673;52.276;10.560;2023-02-24T00:46:44;100425.47;;;3.89;86.63
75991;BME280;64673;52.276;10.560;2023-02-24T00:49:13;100421.44;;;3.98;86.55
75991;BME280;64673;52.276;10.560;2023-02-24T00:51:42;100421.88;;;3.95;87.15
75991;BME280;64673;52.276;10.560;2023-02-24T00:54:08;100419.09;;;3.90;86.35
75991;BME280;64673;52.276;10.560;2023-02-24T00:56:34;100406.50;;;3.55;87.37
75991;BME280;64673;52.276;10.560;2023-02-24T00:59:01;100399.19;;;3.62;88.05
75991;BME280;64673;52.276;10.560;2023-02-24T01:01:31;100396.31;;;3.64;88.54
75991;BME280;64673;52.276;10.560;2023-02-24T01:03:58;100392.00;;;3.63;88.10
75991;BME280;64673;52.276;10.560;2023-02-24T01:06:26;100394.19;;;3.54;88.39
75991;BME280;64673;52.276;10.560;2023-02-24T01:08:53;100386.34;;;3.71;88.15
75991;BME280;64673;52.276;10.560;2023-02-24T01:11:21;100382.03;;;3.58;87.42
75991;BME280;64673;52.276;10.560;2023-02-24T01:14:15;100387.69;;;3.50;87.49
75991;BME280;64673;52.276;10.560;2023-02-24T01:16:41;100386.34;;;3.59;87.99
75991;BME280;64673;52.276;10.560;2023-02-24T01:19:09;100387.22;;;3.53;86.37
75991;BME280;64673;52.276;10.560;2023-02-24T01:21:36;100377.81;;;3.51;86.60
75991;BME280;64673;52.276;10.560;2023-02-24T01:24:01;100369.00;;;3.50;86.60
75991;BME280;64673;52.276;10.560;2023-02-24T01:26:27;100372.16;;;3.47;86.56
75991;BME280;64673;52.276;10.560;2023-02-24T01:28:53;100362.59;;;3.40;87.36
75991;BME280;64673;52.276;10.560;2023-02-24T01:31:20;100361.56;;;3.41;86.62
75991;BME280;64673;52.276;10.560;2023-02-24T01:33:46;100361.00;;;3.39;87.39
75991;BME280;64673;52.276;10.560;2023-02-24T01:36:15;100360.28;;;3.31;87.74
75991;BME280;64673;52.276;10.560;2023-02-24T01:38:41;100356.19;;;3.29;87.31
75991;BME280;64673;52.276;10.560;2023-02-24T01:41:08;100360.88;;;3.34;86.22
75991;BME280;64673;52.276;10.560;2023-02-24T01:46:29;100361.22;;;3.37;85.13
75991;BME280;64673;52.276;10.560;2023-02-24T01:49:04;100360.78;;;3.52;85.99
75991;BME280;64673;52.276;10.560;2023-02-24T01:51:35;100357.69;;;3.55;85.27
75991;BME280;64673;52.276;10.560;2023-02-24T01:54:02;100343.78;;;3.64;86.16
75991;BME280;64673;52.276;10.560;2023-02-24T01:56:30;100348.78;;;3.73;86.14
75991;BME280;64673;52.276;10.560;2023-02-24T01:58:57;100346.59;;;3.70;85.76
75991;BME280;64673;52.276;10.560;2023-02-24T02:01:24;100350.72;;;3.54;86.74
75991;BME280;64673;52.276;10.560;2023-02-24T02:03:51;100339.50;;;3.63;86.42
75991;BME280;64673;52.276;10.560;2023-02-24T02:06:19;100339.16;;;3.72;86.71
75991;BME280;64673;52.276;10.560;2023-02-24T02:08:45;100329.28;;;3.60;87.09
75991;BME280;64673;52.276;10.560;2023-02-24T02:11:13;100329.84;;;3.62;87.28
75991;BME280;64673;52.276;10.560;2023-02-24T02:13:47;100336.75;;;3.70;86.29
75991;BME280;64673;52.276;10.560;2023-02-24T02:25:03;100308.31;;;3.76;87.18
75991;BME280;64673;52.276;10.560;2023-02-24T02:27:42;100315.03;;;3.66;87.77
75991;BME280;64673;52.276;10.560;2023-02-24T02:35:44;100304.38;;;3.66;87.30
75991;BME280;64673;52.276;10.560;2023-02-24T02:38:26;100295.78;;;3.64;88.30
75991;BME280;64673;52.276;10.560;2023-02-24T02:43:37;100281.19;;;3.79;87.07
75991;BME280;64673;52.276;10.560;2023-02-24T02:46:12;100276.53;;;3.62;87.35
75991;BME280;64673;52.276;10.560;2023-02-24T02:48:50;100274.59;;;3.70;87.59
75991;BME280;64673;52.276;10.560;2023-02-24T02:51:20;100278.75;;;3.77;87.70
75991;BME280;64673;52.276;10.560;2023-02-24T02:54:09;100272.38;;;3.66;87.58
75991;BME280;64673;52.276;10.560;2023-02-24T02:56:40;100269.94;;;3.88;86.53
75991;BME280;64673;52.276;10.560;2023-02-24T02:59:10;100275.03;;;3.78;86.30
75991;BME280;64673;52.276;10.560;2023-02-24T03:01:37;100265.19;;;3.79;86.96
75991;BME280;64673;52.276;10.560;2023-02-24T03:04:07;100268.53;;;3.74;87.12
75991;BME280;64673;52.276;10.560;2023-02-24T03:06:38;100260.75;;;3.73;87.42
75991;BME280;64673;52.276;10.560;2023-02-24T03:09:21;100253.94;;;3.77;86.49
75991;BME280;64673;52.276;10.560;2023-02-24T03:11:53;100258.59;;;3.81;87.50
75991;BME280;64673;52.276;10.560;2023-02-24T03:14:26;100262.97;;;3.52;86.80
75991;BME280;64673;52.276;10.560;2023-02-24T03:16:54;100252.88;;;3.66;86.93
75991;BME280;64673;52.276;10.560;2023-02-24T03:19:31;100249.75;;;3.57;87.24
75991;BME280;64673;52.276;10.560;2023-02-24T03:22:09;100247.91;;;3.46;87.39
75991;BME280;64673;52.276;10.560;2023-02-24T03:24:42;100241.28;;;3.60;87.25
75991;BME280;64673;52.276;10.560;2023-02-24T03:27:34;100237.56;;;3.38;87.54
75991;BME280;64673;52.276;10.560;2023-02-24T03:32:51;100222.50;;;3.55;87.30
75991;BME280;64673;52.276;10.560;2023-02-24T03:35:39;100222.97;;;3.52;87.38
75991;BME280;64673;52.276;10.560;2023-02-24T03:38:06;100224.25;;;3.61;86.92
75991;BME280;64673;52.276;10.560;2023-02-24T03:40:36;100219.72;;;3.50;87.70
75991;BME280;64673;52.276;10.560;2023-02-24T03:43:06;100213.03;;;3.59;87.42
75991;BME280;64673;52.276;10.560;2023-02-24T03:45:37;100217.31;;;3.49;87.56
75991;BME280;64673;52.276;10.560;2023-02-24T03:48:05;100218.81;;;3.56;87.39
75991;BME280;64673;52.276;10.560;2023-02-24T03:50:32;100209.75;;;3.46;87.16
75991;BME280;64673;52.276;10.560;2023-02-24T04:04:05;100184.00;;;3.51;87.02
75991;BME280;64673;52.276;10.560;2023-02-24T04:06:42;100184.16;;;3.56;87.25
75991;BME280;64673;52.276;10.560;2023-02-24T04:09:38;100186.44;;;3.41;86.11
75991;BME280;64673;52.276;10.560;2023-02-24T04:12:25;100184.59;;;3.42;85.91
75991;BME280;64673;52.276;10.560;2023-02-24T04:14:56;100178.00;;;3.56;84.85
75991;BME280;64673;52.276;10.560;2023-02-24T04:20:07;100171.72;;;3.50;85.07
75991;BME280;64673;52.276;10.560;2023-02-24T04:22:42;100168.28;;;3.38;84.90
75991;BME280;64673;52.276;10.560;2023-02-24T04:25:10;100163.72;;;3.50;83.04
75991;BME280;64673;52.276;10.560;2023-02-24T04:27:40;100166.41;;;3.50;83.31
75991;BME280;64673;52.276;10.560;2023-02-24T04:30:07;100170.00;;;3.44;83.50
75991;BME280;64673;52.276;10.560;2023-02-24T04:32:35;100165.25;;;3.46;83.29
75991;BME280;64673;52.276;10.560;2023-02-24T04:35:07;100157.34;;;3.51;82.95
75991;BME280;64673;52.276;10.560;2023-02-24T04:37:36;100162.59;;;3.46;83.80
75991;BME280;64673;52.276;10.560;2023-02-24T04:40:05;100154.59;;;3.46;84.40
75991;BME280;64673;52.276;10.560;2023-02-24T04:42:37;100152.50;;;3.48;83.85
75991;BME280;64673;52.276;10.560;2023-02-24T04:45:25;100148.53;;;3.51;84.64
75991;BME280;64673;52.276;10.560;2023-02-24T04:47:52;100151.69;;;3.48;83.64
75991;BME280;64673;52.276;10.560;2023-02-24T04:50:22;100141.25;;;3.23;83.71
75991;BME280;64673;52.276;10.560;2023-02-24T04:52:54;100132.91;;;3.43;82.19
75991;BME280;64673;52.276;10.560;2023-02-24T04:55:21;100137.66;;;3.29;80.99
75991;BME280;64673;52.276;10.560;2023-02-24T04:57:48;100134.44;;;3.27;80.68
75991;BME280;64673;52.276;10.560;2023-02-24T05:00:14;100130.81;;;3.10;78.76
75991;BME280;64673;52.276;10.560;2023-02-24T05:02:51;100127.69;;;3.13;78.79
75991;BME280;64673;52.276;10.560;2023-02-24T05:05:18;100126.06;;;3.12;75.71
75991;BME280;64673;52.276;10.560;2023-02-24T05:07:51;100117.41;;;3.16;74.86
75991;BME280;64673;52.276;10.560;2023-02-24T05:10:17;100122.38;;;3.13;74.49
75991;BME280;64673;52.276;10.560;2023-02-24T05:12:43;100114.25;;;3.19;76.20
75991;BME280;64673;52.276;10.560;2023-02-24T05:15:09;100102.31;;;3.10;71.80
75991;BME280;64673;52.276;10.560;2023-02-24T05:17:36;100115.56;;;3.17;73.13
75991;BME280;64673;52.276;10.560;2023-02-24T05:20:03;100097.72;;;3.17;73.86
75991;BME280;64673;52.276;10.560;2023-02-24T05:22:50;100101.41;;;3.05;72.54
75991;BME280;64673;52.276;10.560;2023-02-24T05:25:16;100098.25;;;3.08;72.10
75991;BME280;64673;52.276;10.560;2023-02-24T05:27:42;100090.41;;;3.13;72.70
75991;BME280;64673;52.276;10.560;2023-02-24T05:30:08;100084.63;;;3.04;72.28
75991;BME280;64673;52.276;10.560;2023-02-24T05:32:35;100090.16;;;3.03;72.23
75991;BME280;64673;52.276;10.560;2023-02-24T05:35:00;100076.94;;;3.08;71.63
75991;BME280;64673;52.276;10.560;2023-02-24T05:37:25;100074.41;;;3.13;72.26
75991;BME280;64673;52.276;10.560;2023-02-24T05:39:54;100070.13;;;3.12;71.78
75991;BME280;64673;52.276;10.560;2023-02-24T05:42:20;100060.06;;;3.14;73.93
75991;BME280;64673;52.276;10.560;2023-02-24T05:44:45;100063.19;;;3.11;73.04
75991;BME280;64673;52.276;10.560;2023-02-24T05:47:12;100064.47;;;2.97;72.77
75991;BME280;64673;52.276;10.560;2023-02-24T05:49:37;100064.94;;;2.93;72.93
75991;BME280;64673;52.276;10.560;2023-02-24T05:52:06;100051.25;;;3.02;73.59
75991;BME280;64673;52.276;10.560;2023-02-24T05:54:38;100051.25;;;3.02;74.17
75991;BME280;64673;52.276;10.560;2023-02-24T05:57:09;100050.56;;;2.94;74.56
75991;BME280;64673;52.276;10.560;2023-02-24T05:59:39;100049.63;;;3.01;73.38
75991;BME280;64673;52.276;10.560;2023-02-24T06:02:07;100054.50;;;3.04;74.05
75991;BME280;64673;52.276;10.560;2023-02-24T06:04:37;100045.47;;;3.05;73.60
75991;BME280;64673;52.276;10.560;2023-02-24T06:07:11;100041.75;;;2.94;73.62
75991;BME280;64673;52.276;10.560;2023-02-24T06:09:44;100023.56;;;3.03;76.69
75991;BME280;64673;52.276;10.560;2023-02-24T06:12:10;100017.44;;;3.02;75.04
75991;BME280;64673;52.276;10.560;2023-02-24T06:14:35;100012.34;;;3.01;76.15
75991;BME280;64673;52.276;10.560;2023-02-24T06:17:01;100026.00;;;3.04;76.17
75991;BME280;64673;52.276;10.560;2023-02-24T06:19:26;100013.13;;;3.13;74.86
75991;BME280;64673;52.276;10.560;2023-02-24T06:21:56;100006.09;;;3.07;74.43
75991;BME280;64673;52.276;10.560;2023-02-24T06:24:26;100006.31;;;3.17;75.10
75991;BME280;64673;52.276;10.560;2023-02-24T06:26:53;100004.47;;;3.06;73.69
75991;BME280;64673;52.276;10.560;2023-02-24T06:29:22;99998.78;;;3.02;74.84
75991;BME280;64673;52.276;10.560;2023-02-24T06:31:53;99996.25;;;3.07;72.94
75991;BME280;64673;52.276;10.560;2023-02-24T06:34:18;99990.22;;;3.00;71.39
75991;BME280;64673;52.276;10.560;2023-02-24T06:36:44;99996.34;;;3.01;71.79
75991;BME280;64673;52.276;10.560;2023-02-24T06:39:11;99984.44;;;3.03;71.77
75991;BME280;64673;52.276;10.560;2023-02-24T06:41:38;99972.97;;;3.03;70.35
75991;BME280;64673;52.276;10.560;2023-02-24T06:44:04;99978.38;;;3.08;70.33
75991;BME280;64673;52.276;10.560;2023-02-24T06:46:29;99967.50;;;3.09;71.37
75991;BME280;64673;52.276;10.560;2023-02-24T06:48:55;99969.84;;;2.94;72.18
75991;BME280;64673;52.276;10.560;2023-02-24T06:51:22;99964.75;;;2.92;70.12
75991;BME280;64673;52.276;10.560;2023-02-24T06:53:49;99960.69;;;3.02;72.21
75991;BME280;64673;52.276;10.560;2023-02-24T06:56:15;99966.47;;;2.99;71.05
75991;BME280;64673;52.276;10.560;2023-02-24T06:58:46;99955.13;;;3.03;72.93
75991;BME280;64673;52.276;10.560;2023-02-24T07:01:13;99948.75;;;3.04;71.97
75991;BME280;64673;52.276;10.560;2023-02-24T07:03:39;99956.03;;;3.09;73.39
75991;BME280;64673;52.276;10.560;2023-02-24T07:06:11;99946.78;;;3.00;71.38
75991;BME280;64673;52.276;10.560;2023-02-24T07:08:49;99947.47;;;3.07;71.69
75991;BME280;64673;52.276;10.560;2023-02-24T07:11:15;99944.31;;;3.10;72.72
75991;BME280;64673;52.276;10.560;2023-02-24T07:13:45;99948.16;;;3.14;70.93
75991;BME280;64673;52.276;10.560;2023-02-24T07:16:19;99942.34;;;3.17;72.13
75991;BME280;64673;52.276;10.560;2023-02-24T07:18:55;99941.19;;;3.13;71.87
75991;BME280;64673;52.276;10.560;2023-02-24T07:21:22;99929.88;;;3.06;70.92
75991;BME280;64673;52.276;10.560;2023-02-24T07:23:48;99933.09;;;3.08;70.75
75991;BME280;64673;52.276;10.560;2023-02-24T07:26:19;99927.97;;;3.18;70.88
75991;BME280;64673;52.276;10.560;2023-02-24T07:28:47;99927.31;;;3.11;71.15
75991;BME280;64673;52.276;10.560;2023-02-24T07:31:15;99923.13;;;3.15;71.26
75991;BME280;64673;52.276;10.560;2023-02-24T07:33:45;99916.84;;;3.21;71.73
75991;BME280;64673;52.276;10.560;2023-02-24T07:36:13;99910.47;;;3.22;69.94
75991;BME280;64673;52.276;10.560;2023-02-24T07:38:40;99916.25;;;3.19;70.40
75991;BME280;64673;52.276;10.560;2023-02-24T07:41:07;99907.53;;;3.07;69.64
75991;BME280;64673;52.276;10.560;2023-02-24T07:43:35;99902.28;;;3.12;70.11
75991;BME280;64673;52.276;10.560;2023-02-24T07:46:12;99902.47;;;3.22;69.41
75991;BME280;64673;52.276;10.560;2023-02-24T07:48:39;99895.88;;;3.24;70.67
75991;BME280;64673;52.276;10.560;2023-02-24T07:51:09;99890.66;;;3.18;70.15
75991;BME280;64673;52.276;10.560;2023-02-24T07:53:36;99890.66;;;3.18;71.03
75991;BME280;64673;52.276;10.560;2023-02-24T07:56:14;99884.41;;;3.24;69.98
75991;BME280;64673;52.276;10.560;2023-02-24T07:58:50;99876.97;;;3.26;70.34
75991;BME280;64673;52.276;10.560;2023-02-24T08:01:17;99865.16;;;3.22;69.66
75991;BME280;64673;52.276;10.560;2023-02-24T08:03:56;99863.03;;;3.36;69.68
75991;BME280;64673;52.276;10.560;2023-02-24T08:06:30;99861.22;;;3.24;69.91
75991;BME280;64673;52.276;10.560;2023-02-24T08:09:06;99864.94;;;3.23;70.46
75991;BME280;64673;52.276;10.560;2023-02-24T08:11:52;99855.66;;;3.26;71.10
75991;BME280;64673;52.276;10.560;2023-02-24T08:14:19;99851.63;;;3.23;71.27
75991;BME280;64673;52.276;10.560;2023-02-24T08:16:49;99843.44;;;3.13;70.00
75991;BME280;64673;52.276;10.560;2023-02-24T08:19:16;99838.53;;;3.22;70.72
75991;BME280;64673;52.276;10.560;2023-02-24T08:21:50;99833.53;;;3.25;71.64
75991;BME280;64673;52.276;10.560;2023-02-24T08:26:53;99819.28;;;3.20;70.42
75991;BME280;64673;52.276;10.560;2023-02-24T08:29:34;99822.31;;;3.40;69.93
75991;BME280;64673;52.276;10.560;2023-02-24T08:34:49;99818.03;;;3.39;70.35
75991;BME280;64673;52.276;10.560;2023-02-24T08:37:15;99809.97;;;3.34;69.57
75991;BME280;64673;52.276;10.560;2023-02-24T08:39:41;99804.63;;;3.34;68.99
75991;BME280;64673;52.276;10.560;2023-02-24T08:42:09;99797.91;;;3.31;70.23
75991;BME280;64673;52.276;10.560;2023-02-24T08:44:39;99791.72;;;3.26;70.39
75991;BME280;64673;52.276;10.560;2023-02-24T08:47:04;99790.56;;;3.22;71.21
75991;BME280;64673;52.276;10.560;2023-02-24T08:49:31;99792.19;;;3.40;69.13
75991;BME280;64673;52.276;10.560;2023-02-24T08:51:58;99781.88;;;3.43;69.85
75991;BME280;64673;52.276;10.560;2023-02-24T08:54:27;99790.16;;;3.30;68.56
75991;BME280;64673;52.276;10.560;2023-02-24T08:56:56;99787.50;;;3.30;68.50
75991;BME280;64673;52.276;10.560;2023-02-24T08:59:33;99774.75;;;3.32;69.38
75991;BME280;64673;52.276;10.560;2023-02-24T09:02:08;99770.72;;;3.46;69.41
75991;BME280;64673;52.276;10.560;2023-02-24T09:04:43;99771.78;;;3.45;69.93
75991;BME280;64673;52.276;10.560;2023-02-24T09:07:13;99752.31;;;3.45;69.71
75991;BME280;64673;52.276;10.560;2023-02-24T09:09:39;99750.59;;;3.55;69.83
75991;BME280;64673;52.276;10.560;2023-02-24T09:12:06;99746.41;;;3.43;70.09
75991;BME280;64673;52.276;10.560;2023-02-24T09:14:33;99757.41;;;3.46;68.76
75991;BME280;64673;52.276;10.560;2023-02-24T09:17:04;99746.34;;;3.38;68.92
75991;BME280;64673;52.276;10.560;2023-02-24T09:19:43;99752.16;;;3.35;69.47
75991;BME280;64673;52.276;10.560;2023-02-24T09:25:05;99744.38;;;3.33;71.33
75991;BME280;64673;52.276;10.560;2023-02-24T09:28:10;99747.75;;;3.28;71.55
75991;BME280;64673;52.276;10.560;2023-02-24T09:30:45;99730.50;;;3.31;72.41
75991;BME280;64673;52.276;10.560;2023-02-24T09:36:00;99743.25;;;3.12;73.99
75991;BME280;64673;52.276;10.560;2023-02-24T09:38:43;99740.75;;;2.77;76.43
75991;BME280;64673;52.276;10.560;2023-02-24T09:44:33;99729.16;;;2.83;79.90
75991;BME280;64673;52.276;10.560;2023-02-24T09:49:38;99722.03;;;2.72;81.18
75991;BME280;64673;52.276;10.560;2023-02-24T09:52:13;99723.41;;;2.46;83.51
75991;BME280;64673;52.276;10.560;2023-02-24T09:54:43;99723.41;;;2.46;84.41
75991;BME280;64673;52.276;10.560;2023-02-24T09:57:29;99721.13;;;2.67;85.15
75991;BME280;64673;52.276;10.560;2023-02-24T10:00:05;99714.91;;;2.61;85.66
75991;BME280;64673;52.276;10.560;2023-02-24T10:03:07;99705.16;;;2.38;84.62
75991;BME280;64673;52.276;10.560;2023-02-24T10:08:29;99705.47;;;2.70;87.17
75991;BME280;64673;52.276;10.560;2023-02-24T10:10:57;99707.81;;;2.38;87.32
75991;BME280;64673;52.276;10.560;2023-02-24T10:13:32;99690.63;;;2.17;86.90
75991;BME280;64673;52.276;10.560;2023-02-24T10:16:02;99683.16;;;2.43;87.85
75991;BME280;64673;52.276;10.560;2023-02-24T10:18:44;99682.84;;;2.28;90.11
75991;BME280;64673;52.276;10.560;2023-02-24T10:21:26;99674.84;;;2.39;90.53
75991;BME280;64673;52.276;10.560;2023-02-24T10:34:50;99652.81;;;2.44;91.09
75991;BME280;64673;52.276;10.560;2023-02-24T10:37:18;99655.16;;;2.40;91.87
75991;BME280;64673;52.276;10.560;2023-02-24T10:39:46;99652.75;;;2.39;91.41
75991;BME280;64673;52.276;10.560;2023-02-24T10:42:34;99643.53;;;2.30;91.08
75991;BME280;64673;52.276;10.560;2023-02-24T10:45:36;99640.28;;;2.28;92.23
75991;BME280;64673;52.276;10.560;2023-02-24T10:48:06;99621.66;;;2.28;90.94
75991;BME280;64673;52.276;10.560;2023-02-24T10:50:41;99632.31;;;2.28;92.38
75991;BME280;64673;52.276;10.560;2023-02-24T10:53:16;99629.06;;;2.26;92.05
75991;BME280;64673;52.276;10.560;2023-02-24T10:55:55;99620.38;;;2.02;92.77
75991;BME280;64673;52.276;10.560;2023-02-24T10:58:41;99600.00;;;2.36;92.33
75991;BME280;64673;52.276;10.560;2023-02-24T11:01:27;99600.16;;;2.01;93.28
75991;BME280;64673;52.276;10.560;2023-02-24T11:04:11;99600.41;;;1.99;93.13
75991;BME280;64673;52.276;10.560;2023-02-24T11:06:49;99589.09;;;1.80;94.42
75991;BME280;64673;52.276;10.560;2023-02-24T11:09:21;99583.09;;;1.85;93.81
75991;BME280;64673;52.276;10.560;2023-02-24T11:12:13;99590.88;;;2.03;94.21
75991;BME280;64673;52.276;10.560;2023-02-24T11:15:01;99577.59;;;2.03;94.85
75991;BME280;64673;52.276;10.560;2023-02-24T11:17:54;99574.28;;;1.96;95.01
75991;BME280;64673;52.276;10.560;2023-02-24T11:22:48;99553.47;;;2.22;94.37
75991;BME280;64673;52.276;10.560;2023-02-24T11:25:24;99555.78;;;2.18;94.26
75991;BME280;64673;52.276;10.560;2023-02-24T11:27:51;99546.72;;;2.31;95.03
75991;BME280;64673;52.276;10.560;2023-02-24T11:30:25;99535.25;;;2.47;94.83
75991;BME280;64673;52.276;10.560;2023-02-24T11:36:11;99521.88;;;2.42;93.54
75991;BME280;64673;52.276;10.560;2023-02-24T11:38:46;99517.09;;;2.10;94.45
75991;BME280;64673;52.276;10.560;2023-02-24T11:43:42;99502.59;;;2.35;94.52
75991;BME280;64673;52.276;10.560;2023-02-24T11:46:16;99490.75;;;2.26;94.79
75991;BME280;64673;52.276;10.560;2023-02-24T11:48:48;99489.06;;;2.36;93.89
75991;BME280;64673;52.276;10.560;2023-02-24T11:51:34;99476.88;;;2.40;94.83
75991;BME280;64673;52.276;10.560;2023-02-24T11:54:10;99478.09;;;2.33;94.62
75991;BME280;64673;52.276;10.560;2023-02-24T11:56:40;99464.06;;;2.20;94.78
75991;BME280;64673;52.276;10.560;2023-02-24T11:59:23;99455.84;;;2.22;94.20
75991;BME280;64673;52.276;10.560;2023-02-24T12:07:41;99440.19;;;2.26;94.49
75991;BME280;64673;52.276;10.560;2023-02-24T12:10:14;99437.16;;;2.00;95.17
75991;BME280;64673;52.276;10.560;2023-02-24T12:13:00;99428.59;;;1.98;94.36
75991;BME280;64673;52.276;10.560;2023-02-24T12:15:30;99426.50;;;2.00;94.47
75991;BME280;64673;52.276;10.560;2023-02-24T12:21:04;99412.41;;;2.00;96.06
75991;BME280;64673;52.276;10.560;2023-02-24T12:23:35;99410.63;;;2.22;96.26
75991;BME280;64673;52.276;10.560;2023-02-24T12:37:14;99392.31;;;2.26;94.73
75991;BME280;64673;52.276;10.560;2023-02-24T12:45:26;99391.50;;;2.25;94.93
75991;BME280;64673;52.276;10.560;2023-02-24T12:53:22;99381.81;;;2.36;95.74
75991;BME280;64673;52.276;10.560;2023-02-24T12:56:03;99377.81;;;2.16;94.50
75991;BME280;64673;52.276;10.560;2023-02-24T12:58:37;99369.75;;;2.28;94.54
75991;BME280;64673;52.276;10.560;2023-02-24T13:03:53;99363.19;;;2.36;94.53
75991;BME280;64673;52.276;10.560;2023-02-24T13:19:41;99336.25;;;2.10;95.31
75991;BME280;64673;52.276;10.560;2023-02-24T13:24:35;99322.88;;;2.05;94.79
75991;BME280;64673;52.276;10.560;2023-02-24T13:29:57;99317.78;;;2.20;95.41
75991;BME280;64673;52.276;10.560;2023-02-24T13:34:53;99302.34;;;2.22;95.97
75991;BME280;64673;52.276;10.560;2023-02-24T13:37:36;99291.59;;;2.12;94.37
75991;BME280;64673;52.276;10.560;2023-02-24T13:43:02;99296.22;;;2.00;95.30
75991;BME280;64673;52.276;10.560;2023-02-24T13:48:35;99277.38;;;2.24;95.82
75991;BME280;64673;52.276;10.560;2023-02-24T13:56:42;99272.25;;;2.17;95.17
75991;BME280;64673;52.276;10.560;2023-02-24T14:02:17;99260.25;;;2.36;96.12
75991;BME280;64673;52.276;10.560;2023-02-24T14:04:55;99254.47;;;2.22;96.70
75991;BME280;64673;52.276;10.560;2023-02-24T14:07:28;99257.31;;;2.16;96.12
75991;BME280;64673;52.276;10.560;2023-02-24T14:09:58;99264.44;;;2.10;95.79
75991;BME280;64673;52.276;10.560;2023-02-24T14:12:30;99251.69;;;2.12;95.81
75991;BME280;64673;52.276;10.560;2023-02-24T14:14:58;99237.59;;;2.12;96.46
75991;BME280;64673;52.276;10.560;2023-02-24T14:17:35;99245.63;;;2.17;95.54
75991;BME280;64673;52.276;10.560;2023-02-24T14:22:50;99240.94;;;2.24;95.04
75991;BME280;64673;52.276;10.560;2023-02-24T14:25:17;99238.28;;;2.24;96.42
75991;BME280;64673;52.276;10.560;2023-02-24T14:27:45;99237.91;;;2.15;96.78
75991;BME280;64673;52.276;10.560;2023-02-24T14:30:33;99228.50;;;2.30;96.17
75991;BME280;64673;52.276;10.560;2023-02-24T14:33:00;99224.16;;;2.24;95.85
75991;BME280;64673;52.276;10.560;2023-02-24T14:35:34;99229.72;;;2.44;95.63
75991;BME280;64673;52.276;10.560;2023-02-24T14:38:02;99218.47;;;2.37;95.05
75991;BME280;64673;52.276;10.560;2023-02-24T14:40:28;99214.69;;;2.54;95.18
75991;BME280;64673;52.276;10.560;2023-02-24T14:42:54;99219.41;;;2.47;94.16
75991;BME280;64673;52.276;10.560;2023-02-24T14:45:24;99215.19;;;2.51;93.93
75991;BME280;64673;52.276;10.560;2023-02-24T14:47:54;99210.47;;;2.58;93.84
75991;BME280;64673;52.276;10.560;2023-02-24T14:50:31;99201.75;;;2.63;94.29
75991;BME280;64673;52.276;10.560;2023-02-24T14:53:02;99199.78;;;2.80;93.13
75991;BME280;64673;52.276;10.560;2023-02-24T14:55:39;99190.59;;;2.66;93.56
75991;BME280;64673;52.276;10.560;2023-02-24T14:58:16;99181.53;;;2.67;93.04
75991;BME280;64673;52.276;10.560;2023-02-24T15:03:24;99179.28;;;2.81;93.67
75991;BME280;64673;52.276;10.560;2023-02-24T15:05:56;99174.75;;;2.81;94.14
75991;BME280;64673;52.276;10.560;2023-02-24T15:10:53;99158.94;;;2.97;91.83
75991;BME280;64673;52.276;10.560;2023-02-24T15:13:41;99162.19;;;3.09;92.31
75991;BME280;64673;52.276;10.560;2023-02-24T15:16:12;99148.00;;;2.98;92.26
75991;BME280;64673;52.276;10.560;2023-02-24T15:18:39;99156.22;;;2.91;92.52
75991;BME280;64673;52.276;10.560;2023-02-24T15:21:18;99161.94;;;3.10;92.18
75991;BME280;64673;52.276;10.560;2023-02-24T15:23:46;99172.53;;;3.00;93.54
75991;BME280;64673;52.276;10.560;2023-02-24T15:26:27;99147.25;;;3.03;91.86
75991;BME280;64673;52.276;10.560;2023-02-24T15:29:01;99136.44;;;3.14;91.13
75991;BME280;64673;52.276;10.560;2023-02-24T15:31:27;99136.09;;;3.06;91.42
75991;BME280;64673;52.276;10.560;2023-02-24T15:34:02;99139.84;;;3.10;92.32
75991;BME280;64673;52.276;10.560;2023-02-24T15:36:33;99142.19;;;3.01;93.21
75991;BME280;64673;52.276;10.560;2023-02-24T15:39:07;99135.28;;;3.05;92.78
75991;BME280;64673;52.276;10.560;2023-02-24T15:41:42;99133.44;;;3.06;92.81
75991;BME280;64673;52.276;10.560;2023-02-24T15:44:49;99127.38;;;3.15;93.03
75991;BME280;64673;52.276;10.560;2023-02-24T15:47:24;99129.97;;;3.05;91.60
75991;BME280;64673;52.276;10.560;2023-02-24T15:49:49;99135.31;;;3.10;92.13
75991;BME280;64673;52.276;10.560;2023-02-24T15:52:21;99122.84;;;3.16;92.81